createdAt,value
2022-11-05T00:00:37.053Z,49.37
2022-11-05T00:03:24.451Z,49.62
2022-11-05T00:06:14.853Z,49.46
2022-11-05T00:09:01.289Z,49.13
2022-11-05T00:11:43.644Z,48.97
2022-11-05T00:14:29.535Z,48.71
2022-11-05T00:16:57.889Z,48.74
2022-11-05T00:19:27.628Z,48.65
2022-11-05T00:22:13.220Z,48.28
2022-11-05T00:24:59.328Z,48.71
2022-11-05T00:27:27.766Z,48.48
2022-11-05T00:29:56.173Z,48.47
2022-11-05T00:32:24.532Z,48.18
2022-11-05T00:34:54.270Z,47.96
2022-11-05T00:37:22.647Z,47.37
2022-11-05T00:39:51.044Z,47.62
2022-11-05T00:42:36.645Z,47.40
2022-11-05T00:45:07.078Z,47.43
2022-11-05T00:47:53.076Z,47.07
2022-11-05T00:50:24.940Z,47.08
2022-11-05T00:52:57.278Z,47.26
2022-11-05T00:55:35.027Z,47.46
2022-11-05T00:58:05.387Z,46.86
2022-11-05T01:00:37.525Z,47.21
2022-11-05T01:03:09.334Z,47.00
2022-11-05T01:05:45.355Z,47.16
2022-11-05T01:08:15.911Z,47.05
2022-11-05T01:10:46.815Z,47.26
2022-11-05T01:13:18.701Z,47.11
2022-11-05T01:15:48.582Z,46.89
2022-11-05T01:18:16.935Z,47.06
2022-11-05T01:20:47.171Z,47.40
2022-11-05T01:23:16.358Z,47.54
2022-11-05T01:25:45.840Z,47.78
2022-11-05T01:28:14.187Z,47.79
2022-11-05T01:30:42.740Z,47.48
2022-11-05T01:33:11.409Z,47.39
2022-11-05T01:35:40.935Z,47.44
2022-11-05T01:38:10.691Z,47.59
2022-11-05T01:40:43.685Z,47.55
2022-11-05T01:43:18.103Z,47.64
2022-11-05T01:45:51.867Z,47.81
2022-11-05T01:48:23.601Z,47.61
2022-11-05T01:50:59.022Z,47.79
2022-11-05T01:53:35.627Z,47.90
2022-11-05T01:56:09.926Z,47.68
2022-11-05T01:58:43.749Z,47.77
2022-11-05T02:01:13.243Z,47.75
2022-11-05T02:03:43.145Z,47.86
2022-11-05T02:06:12.289Z,47.89
2022-11-05T02:08:58.379Z,47.90
2022-11-05T02:11:26.797Z,48.27
2022-11-05T02:13:55.244Z,47.94
2022-11-05T02:16:39.021Z,47.71
2022-11-05T02:20:10.707Z,48.04
2022-11-05T02:23:05.708Z,48.22
2022-11-05T02:26:10.127Z,48.34
2022-11-05T02:29:08.081Z,48.35
2022-11-05T02:31:44.371Z,48.22
2022-11-05T02:34:27.034Z,48.25
2022-11-05T02:37:08.084Z,48.33
2022-11-05T02:39:44.916Z,48.55
2022-11-05T02:42:26.819Z,48.65
2022-11-05T02:45:14.696Z,48.67
2022-11-05T02:47:49.137Z,48.73
2022-11-05T02:50:26.121Z,48.88
2022-11-05T02:53:03.336Z,48.80
2022-11-05T02:55:38.174Z,48.94
2022-11-05T02:58:09.119Z,48.89
2022-11-05T03:00:51.564Z,48.96
2022-11-05T03:03:30.506Z,49.02
2022-11-05T03:06:53.112Z,49.09
2022-11-05T03:09:59.621Z,49.25
2022-11-05T03:12:40.962Z,48.91
2022-11-05T03:15:27.541Z,49.16
2022-11-05T03:18:08.317Z,49.14
2022-11-05T03:20:45.616Z,49.06
2022-11-05T03:23:22.597Z,49.02
2022-11-05T03:25:59.292Z,48.77
2022-11-05T03:28:32.472Z,48.76
2022-11-05T03:31:02.610Z,48.94
2022-11-05T03:33:34.472Z,48.93
2022-11-05T03:36:11.080Z,48.87
2022-11-05T03:38:43.653Z,48.72
2022-11-05T03:41:15.415Z,48.78
2022-11-05T03:43:50.539Z,48.62
2022-11-05T03:46:25.737Z,48.76
2022-11-05T03:48:59.451Z,48.96
2022-11-05T03:51:39.548Z,48.83
2022-11-05T03:54:08.491Z,48.88
2022-11-05T03:56:44.905Z,48.82
2022-11-05T03:59:13.818Z,48.73
2022-11-05T04:01:43.919Z,48.54
2022-11-05T04:04:12.394Z,48.66
2022-11-05T04:06:59.364Z,48.74
2022-11-05T04:09:45.095Z,48.94
2022-11-05T04:12:31.044Z,48.85
2022-11-05T04:14:59.480Z,49.11
2022-11-05T04:17:26.836Z,48.91
2022-11-05T04:20:12.627Z,49.06
2022-11-05T04:22:59.892Z,49.01
2022-11-05T04:25:28.493Z,49.01
2022-11-05T04:28:01.340Z,49.09
2022-11-05T04:30:28.802Z,49.14
2022-11-05T04:33:04.228Z,48.98
2022-11-05T04:35:35.724Z,49.10
2022-11-05T04:38:06.037Z,48.96
2022-11-05T04:40:35.220Z,48.94
2022-11-05T04:43:04.005Z,48.94
2022-11-05T04:45:34.530Z,48.93
2022-11-05T04:48:03.021Z,49.23
2022-11-05T04:50:32.089Z,49.12
2022-11-05T04:53:00.997Z,49.16
2022-11-05T04:55:31.305Z,49.25
2022-11-05T04:57:59.667Z,49.16
2022-11-05T05:00:28.134Z,49.21
2022-11-05T05:02:56.531Z,49.33
2022-11-05T05:05:24.912Z,49.37
2022-11-05T05:07:53.285Z,49.33
2022-11-05T05:10:21.701Z,49.23
2022-11-05T05:12:51.416Z,49.35
2022-11-05T05:15:19.893Z,49.50
2022-11-05T05:17:52.345Z,49.55
2022-11-05T05:20:38.625Z,49.42
2022-11-05T05:23:07.171Z,49.47
2022-11-05T05:25:35.537Z,49.60
2022-11-05T05:28:05.402Z,49.67
2022-11-05T05:30:33.795Z,49.74
2022-11-05T05:33:04.465Z,49.75
2022-11-05T05:35:32.834Z,49.90
2022-11-05T05:38:01.218Z,49.85
2022-11-05T05:40:29.646Z,50.03
2022-11-05T05:42:58.037Z,49.91
2022-11-05T05:45:27.834Z,49.95
2022-11-05T05:47:57.235Z,49.79
2022-11-05T05:50:25.613Z,49.76
2022-11-05T05:52:54.477Z,49.86
2022-11-05T05:55:22.924Z,49.73
2022-11-05T05:57:51.536Z,49.73
2022-11-05T06:00:20.274Z,49.76
2022-11-05T06:02:50.115Z,49.71
2022-11-05T06:05:18.549Z,49.85
2022-11-05T06:07:46.904Z,49.91
2022-11-05T06:10:15.270Z,49.83
2022-11-05T06:12:43.675Z,49.75
2022-11-05T06:15:12.667Z,49.80
2022-11-05T06:17:41.018Z,49.78
2022-11-05T06:20:12.298Z,49.36
2022-11-05T06:22:40.946Z,49.69
2022-11-05T06:25:10.821Z,49.61
2022-11-05T06:27:39.185Z,49.69
2022-11-05T06:30:09.701Z,49.51
2022-11-05T06:32:38.059Z,49.53
2022-11-05T06:35:07.057Z,49.66
2022-11-05T06:37:36.790Z,49.67
2022-11-05T06:40:06.243Z,49.40
2022-11-05T06:42:34.783Z,49.38
2022-11-05T06:45:03.446Z,49.42
2022-11-05T06:47:32.252Z,49.50
2022-11-05T06:50:00.606Z,49.35
2022-11-05T06:52:31.406Z,49.42
2022-11-05T06:55:01.155Z,49.15
2022-11-05T06:57:29.486Z,49.15
2022-11-05T07:00:02.268Z,48.98
2022-11-05T07:02:32.930Z,49.13
2022-11-05T07:05:01.260Z,49.10
2022-11-05T07:07:29.635Z,49.08
2022-11-05T07:09:58.051Z,49.12
2022-11-05T07:12:27.743Z,49.02
2022-11-05T07:14:56.149Z,49.11
2022-11-05T07:17:24.731Z,49.16
2022-11-05T07:19:53.113Z,49.16
2022-11-05T07:22:21.496Z,49.18
2022-11-05T07:24:50.370Z,49.25
2022-11-05T07:27:18.774Z,49.02
2022-11-05T07:29:48.536Z,49.02
2022-11-05T07:32:16.935Z,48.76
2022-11-05T07:34:45.314Z,48.58
2022-11-05T07:37:13.694Z,48.55
2022-11-05T07:39:42.031Z,48.48
2022-11-05T07:42:14.518Z,48.49
2022-11-05T07:44:42.980Z,48.58
2022-11-05T07:47:12.753Z,48.55
2022-11-05T07:49:41.167Z,48.17
2022-11-05T07:52:09.461Z,48.18
2022-11-05T07:54:37.848Z,48.07
2022-11-05T07:57:06.258Z,47.89
2022-11-05T07:59:34.670Z,48.04
2022-11-05T08:02:03.254Z,48.17
2022-11-05T08:04:33.572Z,48.16
2022-11-05T08:07:01.931Z,47.94
2022-11-05T08:09:30.278Z,48.19
2022-11-05T08:12:02.678Z,48.18
2022-11-05T08:14:31.576Z,47.95
2022-11-05T08:17:00.116Z,48.13
2022-11-05T08:19:28.489Z,47.82
2022-11-05T08:21:58.332Z,47.46
2022-11-05T08:24:26.807Z,47.38
2022-11-05T08:26:55.210Z,47.29
2022-11-05T08:29:23.580Z,46.87
2022-11-05T08:31:51.942Z,46.87
2022-11-05T08:34:20.376Z,46.41
2022-11-05T08:36:48.699Z,45.73
2022-11-05T08:39:19.075Z,45.63
2022-11-05T08:41:48.068Z,45.94
2022-11-05T08:44:16.411Z,45.35
2022-11-05T08:46:44.744Z,45.25
2022-11-05T08:49:13.266Z,45.03
2022-11-05T08:51:41.823Z,44.59
2022-11-05T08:54:10.399Z,45.02
2022-11-05T08:56:40.199Z,44.75
2022-11-05T08:59:08.854Z,44.87
2022-11-05T09:01:37.299Z,44.92
2022-11-05T09:04:06.468Z,44.84
2022-11-05T09:06:34.871Z,44.53
2022-11-05T09:09:03.246Z,44.18
2022-11-05T09:11:49.916Z,43.86
2022-11-05T09:14:21.518Z,44.13
2022-11-05T09:16:49.873Z,44.43
2022-11-05T09:19:18.263Z,44.73
2022-11-05T09:21:46.872Z,44.38
2022-11-05T09:24:15.315Z,44.05
2022-11-05T09:26:43.655Z,43.94
2022-11-05T09:29:14.489Z,43.87
2022-11-05T09:31:44.834Z,43.84
2022-11-05T09:34:13.237Z,43.52
2022-11-05T09:36:42.020Z,43.54
2022-11-05T09:39:12.845Z,43.07
2022-11-05T09:41:43.519Z,43.20
2022-11-05T09:44:17.547Z,43.09
2022-11-05T09:46:50.726Z,42.53
2022-11-05T09:49:29.126Z,42.63
2022-11-05T09:52:00.089Z,42.67
2022-11-05T09:54:33.344Z,42.70
2022-11-05T09:57:04.173Z,42.44
2022-11-05T09:59:42.796Z,42.33
2022-11-05T10:02:19.486Z,42.18
2022-11-05T10:04:53.521Z,42.42
2022-11-05T10:07:26.957Z,42.43
2022-11-05T10:10:00.483Z,41.89
2022-11-05T10:12:37.600Z,42.02
2022-11-05T10:15:13.950Z,42.34
2022-11-05T10:17:50.901Z,42.11
2022-11-05T10:20:28.747Z,42.26
2022-11-05T10:23:00.370Z,41.70
2022-11-05T10:25:34.263Z,41.72
2022-11-05T10:28:04.930Z,41.45
2022-11-05T10:30:33.859Z,41.79
2022-11-05T10:33:07.975Z,41.93
2022-11-05T10:35:48.922Z,41.70
2022-11-05T10:38:17.752Z,41.94
2022-11-05T10:41:04.731Z,42.13
2022-11-05T10:43:40.870Z,42.01
2022-11-05T10:46:29.660Z,41.96
2022-11-05T10:49:18.687Z,42.10
2022-11-05T10:51:47.720Z,41.79
2022-11-05T10:54:21.801Z,42.00
2022-11-05T10:56:50.565Z,42.29
2022-11-05T10:59:25.179Z,42.21
2022-11-05T11:02:04.323Z,42.26
2022-11-05T11:04:37.843Z,42.46
2022-11-05T11:07:06.863Z,42.78
2022-11-05T11:09:37.871Z,42.40
2022-11-05T11:12:16.623Z,42.28
2022-11-05T11:15:00.695Z,42.36
2022-11-05T11:17:31.788Z,42.25
2022-11-05T11:20:24.753Z,42.48
2022-11-05T11:23:06.584Z,42.57
2022-11-05T11:25:46.244Z,42.26
2022-11-05T11:28:25.616Z,41.97
2022-11-05T11:31:05.495Z,42.30
2022-11-05T11:33:35.346Z,42.44
2022-11-05T11:36:06.400Z,42.46
2022-11-05T11:38:37.058Z,42.46
2022-11-05T11:41:24.040Z,42.65
2022-11-05T11:43:58.169Z,42.41
2022-11-05T11:46:27.038Z,42.51
2022-11-05T11:48:55.415Z,42.65
2022-11-05T11:51:36.882Z,42.78
2022-11-05T11:54:06.746Z,43.06
2022-11-05T11:56:45.499Z,43.06
2022-11-05T11:59:40.852Z,43.38
2022-11-05T12:03:08.225Z,43.50
2022-11-05T12:05:46.371Z,43.74
2022-11-05T12:08:45.339Z,43.72
2022-11-05T12:11:23.907Z,43.75
2022-11-05T12:14:05.671Z,43.68
2022-11-05T12:16:58.410Z,43.77
2022-11-05T12:20:04.438Z,43.36
2022-11-05T12:22:57.186Z,43.22
2022-11-05T12:25:31.165Z,43.19
2022-11-05T12:28:23.178Z,42.62
2022-11-05T12:31:01.049Z,42.66
2022-11-05T12:33:43.609Z,42.87
2022-11-05T12:36:26.850Z,42.55
2022-11-05T12:39:23.127Z,42.65
2022-11-05T12:42:01.457Z,42.37
2022-11-05T12:44:52.368Z,42.51
2022-11-05T12:47:38.408Z,42.02
2022-11-05T12:50:21.861Z,41.92
2022-11-05T12:53:23.364Z,41.95
2022-11-05T12:55:52.773Z,41.44
2022-11-05T12:58:29.133Z,41.29
2022-11-05T13:01:02.504Z,41.19
2022-11-05T13:03:41.364Z,41.34
2022-11-05T13:06:14.617Z,40.68
2022-11-05T13:08:52.945Z,40.98
2022-11-05T13:11:28.664Z,41.13
2022-11-05T13:14:09.170Z,40.83
2022-11-05T13:16:41.555Z,41.08
2022-11-05T13:19:20.554Z,41.27
2022-11-05T13:21:56.042Z,41.18
2022-11-05T13:24:32.618Z,41.03
2022-11-05T13:27:23.691Z,41.54
2022-11-05T13:30:00.885Z,41.57
2022-11-05T13:32:33.142Z,41.36
2022-11-05T13:35:06.126Z,41.44
2022-11-05T13:37:55.872Z,41.64
2022-11-05T13:40:36.837Z,41.51
2022-11-05T13:43:26.537Z,41.66
2022-11-05T13:46:40.352Z,41.60
2022-11-05T13:50:02.311Z,41.81
2022-11-05T13:53:00.047Z,41.87
2022-11-05T13:56:01.424Z,42.15
2022-11-05T13:59:22.595Z,42.22
2022-11-05T14:01:57.714Z,42.24
2022-11-05T14:04:35.232Z,42.07
2022-11-05T14:07:10.761Z,42.17
2022-11-05T14:09:41.610Z,42.23
2022-11-05T14:12:22.572Z,42.54
2022-11-05T14:14:59.106Z,42.43
2022-11-05T14:17:36.950Z,42.36
2022-11-05T14:20:59.737Z,42.67
2022-11-05T14:23:54.207Z,42.68
2022-11-05T14:26:25.646Z,42.55
2022-11-05T14:29:37.841Z,42.72
2022-11-05T14:32:29.251Z,42.86
2022-11-05T14:35:05.272Z,42.55
2022-11-05T14:37:39.481Z,42.69
2022-11-05T14:40:32.415Z,42.88
2022-11-05T14:43:03.160Z,42.69
2022-11-05T14:45:36.102Z,42.79
2022-11-05T14:48:08.223Z,42.80
2022-11-05T14:50:41.932Z,42.84
2022-11-05T14:53:29.685Z,42.83
2022-11-05T14:56:06.852Z,42.78
2022-11-05T14:58:40.460Z,42.75
2022-11-05T15:01:10.660Z,42.82
2022-11-05T15:04:04.109Z,42.79
2022-11-05T15:06:41.205Z,42.69
2022-11-05T15:09:29.380Z,42.80
2022-11-05T15:12:21.019Z,42.76
2022-11-05T15:14:59.101Z,42.66
2022-11-05T15:17:31.874Z,42.34
2022-11-05T15:20:12.354Z,42.39
2022-11-05T15:22:46.332Z,42.43
2022-11-05T15:25:20.407Z,42.29
2022-11-05T15:28:06.411Z,42.46
2022-11-05T15:30:35.936Z,42.35
2022-11-05T15:33:20.028Z,42.69
2022-11-05T15:35:48.815Z,42.61
2022-11-05T15:38:34.184Z,42.63
2022-11-05T15:41:06.018Z,42.67
2022-11-05T15:43:34.769Z,42.59
2022-11-05T15:46:08.010Z,42.63
2022-11-05T15:48:38.759Z,42.74
2022-11-05T15:51:07.500Z,42.84
2022-11-05T15:56:53.776Z,42.83
2022-11-05T15:59:24.784Z,42.78
2022-11-05T16:01:56.850Z,42.79
2022-11-05T16:04:30.561Z,43.03
2022-11-05T16:07:07.410Z,42.89
2022-11-05T16:09:41.225Z,42.97
2022-11-05T16:12:34.659Z,43.03
2022-11-05T16:15:22.875Z,43.20
2022-11-05T16:17:56.451Z,43.12
2022-11-05T16:20:32.582Z,43.18
2022-11-05T16:23:05.506Z,43.40
2022-11-05T16:25:43.697Z,43.41
2022-11-05T16:28:24.288Z,43.34
2022-11-05T16:30:59.856Z,43.52
2022-11-05T16:33:34.368Z,43.51
2022-11-05T16:36:02.972Z,43.26
2022-11-05T16:38:32.082Z,43.33
2022-11-05T16:41:04.905Z,43.29
2022-11-05T16:43:34.999Z,43.01
2022-11-05T16:46:04.170Z,43.08
2022-11-05T16:48:33.551Z,42.96
2022-11-05T16:51:03.436Z,43.19
2022-11-05T16:53:32.458Z,43.15
2022-11-05T16:56:06.554Z,42.84
2022-11-05T16:58:36.896Z,42.85
2022-11-05T17:01:09.613Z,42.81
2022-11-05T17:03:39.086Z,42.82
2022-11-05T17:06:11.737Z,42.62
2022-11-05T17:08:41.565Z,42.72
2022-11-05T17:11:15.208Z,42.63
2022-11-05T17:13:45.671Z,42.49
2022-11-05T17:16:18.568Z,42.70
2022-11-05T17:18:48.478Z,42.47
2022-11-05T17:21:19.995Z,42.53
2022-11-05T17:23:49.149Z,42.44
2022-11-05T17:26:19.391Z,42.64
2022-11-05T17:28:50.706Z,42.60
2022-11-05T17:31:20.309Z,42.72
2022-11-05T17:33:49.771Z,42.51
2022-11-05T17:36:19.418Z,42.52
2022-11-05T17:38:49.056Z,42.65
2022-11-05T17:41:23.203Z,42.37
2022-11-05T17:43:56.459Z,42.61
2022-11-05T17:46:26.506Z,42.46
2022-11-05T17:48:55.913Z,42.55
2022-11-05T17:51:26.113Z,42.67
2022-11-05T17:53:58.926Z,42.49
2022-11-05T17:56:34.944Z,42.88
2022-11-05T17:59:10.357Z,42.98
2022-11-05T18:01:43.672Z,42.98
2022-11-05T18:04:13.652Z,43.02
2022-11-05T18:06:44.963Z,43.17
2022-11-05T18:09:15.038Z,43.23
2022-11-05T18:11:46.237Z,43.33
2022-11-05T18:14:21.308Z,43.49
2022-11-05T18:16:55.936Z,43.42
2022-11-05T18:19:26.190Z,43.70
2022-11-05T18:21:55.947Z,43.66
2022-11-05T18:24:26.100Z,43.78
2022-11-05T18:26:57.310Z,44.06
2022-11-05T18:29:27.036Z,43.88
2022-11-05T18:31:59.665Z,43.97
2022-11-05T18:34:30.064Z,43.96
2022-11-05T18:37:00.999Z,44.15
2022-11-05T18:39:31.771Z,44.08
2022-11-05T18:42:03.144Z,44.11
2022-11-05T18:44:39.012Z,44.38
2022-11-05T18:47:09.317Z,44.20
2022-11-05T18:49:38.911Z,44.38
2022-11-05T18:52:09.294Z,44.19
2022-11-05T18:54:40.911Z,44.15
2022-11-05T18:57:14.889Z,44.24
2022-11-05T18:59:48.231Z,44.25
2022-11-05T19:02:21.528Z,44.37
2022-11-05T19:05:21.929Z,44.30
2022-11-05T19:07:41.420Z,44.61
2022-11-05T19:10:11.599Z,44.43
2022-11-05T19:12:42.693Z,44.46
2022-11-05T19:15:13.384Z,44.30
2022-11-05T19:17:43.617Z,44.38
2022-11-05T19:20:14.266Z,44.25
2022-11-05T19:22:44.004Z,44.52
2022-11-05T19:25:13.951Z,44.42
2022-11-05T19:27:46.049Z,44.56
2022-11-05T19:30:17.590Z,44.65
2022-11-05T19:32:47.561Z,44.72
2022-11-05T19:35:18.084Z,44.98
2022-11-05T19:37:47.828Z,44.94
2022-11-05T19:40:21.717Z,45.14
2022-11-05T19:42:52.740Z,45.54
2022-11-05T19:45:43.561Z,45.41
2022-11-05T19:48:18.798Z,45.65
2022-11-05T19:50:49.130Z,46.11
2022-11-05T19:53:18.304Z,46.28
2022-11-05T19:55:48.138Z,46.00
2022-11-05T19:58:21.318Z,46.14
2022-11-05T20:00:53.379Z,46.04
2022-11-05T20:03:23.966Z,46.26
2022-11-05T20:05:54.797Z,46.20
2022-11-05T20:08:24.876Z,46.26
2022-11-05T20:10:58.397Z,46.16
2022-11-05T20:13:30.260Z,46.13
2022-11-05T20:16:02.004Z,46.21
2022-11-05T20:18:32.410Z,46.34
2022-11-05T20:21:09.515Z,46.35
2022-11-05T20:23:39.584Z,46.39
2022-11-05T20:26:10.597Z,46.48
2022-11-05T20:28:46.206Z,46.50
2022-11-05T20:31:19.683Z,46.54
2022-11-05T20:33:49.110Z,46.57
2022-11-05T20:36:22.667Z,46.70
2022-11-05T20:38:55.211Z,46.49
2022-11-05T20:41:27.208Z,46.70
2022-11-05T20:43:59.290Z,46.60
2022-11-05T20:46:29.503Z,46.73
2022-11-05T20:48:59.346Z,46.74
2022-11-05T20:51:30.142Z,46.77
2022-11-05T20:54:04.285Z,46.83
2022-11-05T20:56:36.249Z,47.07
2022-11-05T20:59:07.760Z,47.01
2022-11-05T21:01:37.009Z,47.06
2022-11-05T21:04:10.394Z,47.08
2022-11-05T21:06:40.682Z,47.17
2022-11-05T21:09:10.039Z,47.17
2022-11-05T21:11:53.432Z,47.31
2022-11-05T21:14:24.372Z,47.32
2022-11-05T21:16:55.113Z,47.49
2022-11-05T21:19:24.666Z,47.45
2022-11-05T21:21:54.565Z,47.69
2022-11-05T21:24:24.260Z,47.63
2022-11-05T21:26:53.737Z,47.48
2022-11-05T21:29:27.560Z,47.65
2022-11-05T21:32:03.087Z,47.79
2022-11-05T21:34:32.596Z,47.62
2022-11-05T21:37:02.051Z,47.85
2022-11-05T21:39:31.825Z,47.84
2022-11-05T21:42:03.234Z,47.81
2022-11-05T21:44:34.040Z,47.89
2022-11-05T21:47:04.613Z,47.89
2022-11-05T21:49:35.554Z,47.87
2022-11-05T21:52:21.156Z,47.82
2022-11-05T21:55:07.936Z,48.02
2022-11-05T21:57:54.199Z,48.02
2022-11-05T22:00:24.904Z,48.08
2022-11-05T22:02:54.233Z,47.98
2022-11-05T22:05:23.847Z,48.10
2022-11-05T22:07:52.712Z,48.21
2022-11-05T22:10:21.372Z,48.14
2022-11-05T22:12:50.198Z,48.19
2022-11-05T22:15:18.808Z,48.23
2022-11-05T22:17:51.825Z,48.25
2022-11-05T22:20:20.658Z,48.43
2022-11-05T22:22:49.087Z,48.53
2022-11-05T22:25:17.977Z,48.60
2022-11-05T22:27:46.553Z,48.58
2022-11-05T22:30:16.275Z,48.52
2022-11-05T22:32:46.225Z,48.53
2022-11-05T22:35:16.080Z,48.75
2022-11-05T22:37:44.614Z,48.66
2022-11-05T22:40:13.383Z,48.82
2022-11-05T22:42:41.886Z,49.01
2022-11-05T22:45:11.502Z,48.84
2022-11-05T22:47:42.350Z,48.95
2022-11-05T22:50:11.551Z,48.97
2022-11-05T22:52:41.335Z,48.88
2022-11-05T22:55:10.804Z,49.00
2022-11-05T22:57:39.210Z,49.00
2022-11-05T23:00:17.973Z,48.88
2022-11-05T23:02:46.833Z,49.10
2022-11-05T23:05:16.268Z,49.19
2022-11-05T23:08:03.300Z,49.09
2022-11-05T23:10:54.516Z,49.32
2022-11-05T23:13:22.913Z,49.45
2022-11-05T23:16:08.496Z,49.38
2022-11-05T23:18:54.514Z,49.55
2022-11-05T23:21:40.168Z,49.55
2022-11-05T23:24:10.173Z,49.44
2022-11-05T23:26:53.014Z,49.66
2022-11-05T23:29:24.181Z,49.46
2022-11-05T23:32:10.878Z,49.48
2022-11-05T23:34:39.452Z,49.44
2022-11-05T23:37:25.916Z,49.34
2022-11-05T23:39:55.757Z,49.55
2022-11-05T23:42:42.132Z,49.56
2022-11-05T23:45:29.690Z,49.62
2022-11-05T23:48:15.997Z,49.61
2022-11-05T23:50:47.946Z,49.68
2022-11-05T23:53:16.605Z,49.97
2022-11-05T23:55:46.622Z,49.65
2022-11-05T23:58:15.669Z,49.70
